Time;durP1;ratioP1;P1;durP2;ratioP2;P2;SDS_P1;SDS_P2;PMS_P1;PMS_P2;Temp;Humidity;BMP_temperature;BMP_pressure;BME280_temperature;BME280_humidity;BME280_pressure;Samples;Min_cycle;Max_cycle;Signal;HPM_P1;HPM_P2
2022/05/10 00:01:39;;;;;;;9.00;2.38;;;12.30;56.60;;;;;;4120560;28;20037;-84
2022/05/10 00:03:40;;;;;;;9.90;2.10;;;12.30;56.60;;;;;;4118084;28;20050;-85
2022/05/10 00:05:42;;;;;;;13.25;2.45;;;12.30;56.50;;;;;;4123198;28;20049;-87
2022/05/10 00:07:43;;;;;;;7.60;1.95;;;12.40;56.40;;;;;;4137716;28;20026;-85
2022/05/10 00:09:44;;;;;;;6.63;2.20;;;12.40;56.30;;;;;;4117535;28;20508;-85
2022/05/10 00:11:44;;;;;;;8.50;2.20;;;12.40;56.20;;;;;;4105214;28;20039;-85
2022/05/10 00:13:45;;;;;;;7.28;2.17;;;12.40;56.20;;;;;;4121203;28;20546;-86
2022/05/10 00:15:47;;;;;;;11.45;2.17;;;12.40;56.10;;;;;;4120960;28;23072;-85
2022/05/10 00:17:48;;;;;;;6.50;2.03;;;12.40;56.00;;;;;;4119736;28;20057;-85
2022/05/10 00:19:49;;;;;;;8.70;2.40;;;12.40;56.00;;;;;;4121099;28;20038;-85
2022/05/10 00:21:50;;;;;;;8.95;2.28;;;12.40;55.80;;;;;;4134139;28;20588;-85
2022/05/10 00:23:52;;;;;;;5.70;2.20;;;12.40;55.70;;;;;;4118634;28;20045;-85
2022/05/10 00:25:52;;;;;;;8.23;2.28;;;12.50;55.70;;;;;;4118574;28;20018;-86
2022/05/10 00:27:53;;;;;;;7.13;2.40;;;12.50;55.70;;;;;;4114748;28;20037;-86
2022/05/10 00:29:54;;;;;;;5.68;2.50;;;12.50;55.60;;;;;;4122868;28;20034;-86
2022/05/10 00:31:55;;;;;;;11.80;2.25;;;12.50;55.70;;;;;;4119327;28;20105;-85
2022/05/10 00:33:58;;;;;;;9.10;2.55;;;12.50;55.60;;;;;;4119040;28;20480;-85
2022/05/10 00:35:59;;;;;;;;;;;12.50;55.60;;;;;;4120624;28;20141;-86
2022/05/10 00:38:02;;;;;;;6.13;1.80;;;12.50;55.70;;;;;;4118284;28;20091;-86
2022/05/10 00:40:03;;;;;;;5.50;1.85;;;12.50;55.60;;;;;;4117538;28;20507;-86
2022/05/10 00:42:13;;;;;;;8.15;2.33;;;12.50;55.50;;;;;;4135977;28;20495;-85
2022/05/10 00:44:25;;;;;;;12.35;2.40;;;12.50;55.50;;;;;;4120327;28;20116;-85
2022/05/10 00:46:37;;;;;;;10.52;2.90;;;12.40;55.50;;;;;;4117570;28;20440;-85
2022/05/10 00:48:56;;;;;;;9.55;2.42;;;12.40;55.40;;;;;;4135299;28;20100;-86
2022/05/10 00:51:22;;;;;;;6.53;2.15;;;12.40;55.50;;;;;;4138685;28;20017;-85
2022/05/10 00:53:47;;;;;;;9.82;2.15;;;12.40;55.50;;;;;;4135501;28;20026;-85
2022/05/10 00:55:54;;;;;;;8.98;2.35;;;12.40;55.50;;;;;;4137308;28;20076;-86
2022/05/10 00:57:59;;;;;;;6.88;2.35;;;12.40;55.60;;;;;;4135894;28;20031;-86
2022/05/10 01:00:23;;;;;;;12.65;2.80;;;12.40;55.60;;;;;;4116514;28;20080;-86
2022/05/10 01:02:37;;;;;;;9.70;2.13;;;12.30;55.60;;;;;;4121380;28;20368;-85
2022/05/10 01:04:44;;;;;;;9.90;2.33;;;12.40;55.70;;;;;;4117271;28;20027;-86
2022/05/10 01:07:10;;;;;;;6.88;2.17;;;12.40;55.70;;;;;;4127264;28;20026;-86
2022/05/10 01:09:38;;;;;;;9.18;2.80;;;12.30;55.70;;;;;;4111511;28;20049;-86
2022/05/10 01:11:58;;;;;;;9.90;3.00;;;12.30;55.80;;;;;;4121266;28;20058;-85
2022/05/10 01:14:12;;;;;;;9.50;2.28;;;12.30;55.80;;;;;;4134916;28;20026;-85
2022/05/10 01:16:14;;;;;;;;;;;12.30;55.90;;;;;;4135413;28;20137;-86
2022/05/10 01:18:18;;;;;;;9.93;2.40;;;12.30;55.90;;;;;;4121239;28;19920;-85
2022/05/10 01:20:24;;;;;;;6.25;2.38;;;12.30;55.80;;;;;;4133093;28;20053;-85
2022/05/10 01:22:46;;;;;;;9.27;2.53;;;12.30;55.80;;;;;;4117918;28;20578;-86
2022/05/10 01:25:06;;;;;;;10.70;2.58;;;12.30;55.90;;;;;;4121182;28;20499;-85
2022/05/10 01:27:18;;;;;;;10.30;2.58;;;12.30;55.80;;;;;;4124857;28;20105;-85
2022/05/10 01:29:27;;;;;;;11.18;2.30;;;12.20;55.80;;;;;;4114944;28;20038;-86
2022/05/10 01:31:44;;;;;;;12.32;2.67;;;12.20;55.80;;;;;;4135372;28;20132;-85
2022/05/10 01:33:49;;;;;;;6.78;2.25;;;12.20;55.80;;;;;;4135487;28;20431;-85
2022/05/10 01:36:00;;;;;;;7.78;2.50;;;12.20;55.80;;;;;;4122431;28;20892;-85
2022/05/10 01:38:34;;;;;;;7.97;2.55;;;12.20;55.80;;;;;;4139889;28;20467;-85
2022/05/10 01:40:45;;;;;;;8.88;2.00;;;12.20;55.80;;;;;;4133495;28;20042;-85
2022/05/10 01:42:53;;;;;;;8.98;2.08;;;12.20;55.80;;;;;;4119711;28;20022;-85
2022/05/10 01:45:15;;;;;;;5.93;2.22;;;12.20;55.80;;;;;;4120237;28;20049;-85
2022/05/10 01:47:49;;;;;;;8.38;2.25;;;12.20;55.80;;;;;;4123494;28;20061;-84
2022/05/10 01:49:55;;;;;;;6.82;2.15;;;12.20;55.80;;;;;;4100166;28;20034;-85
2022/05/10 01:52:01;;;;;;;8.82;2.50;;;12.20;56.30;;;;;;4137612;28;20402;-85
2022/05/10 01:54:02;;;;;;;11.35;2.75;;;12.20;55.70;;;;;;4136872;28;20057;-85
2022/05/10 01:56:05;;;;;;;8.88;2.50;;;12.20;55.70;;;;;;4123238;28;20753;-86
2022/05/10 01:58:15;;;;;;;12.40;2.65;;;12.20;55.80;;;;;;4117192;28;20046;-84
2022/05/10 02:00:26;;;;;;;7.68;2.20;;;12.20;55.80;;;;;;4122136;28;20114;-85
2022/05/10 02:02:31;;;;;;;;;;;12.20;55.70;;;;;;4132555;28;20250;-85
2022/05/10 02:04:39;;;;;;;11.65;2.20;;;12.20;55.80;;;;;;4119788;28;20299;-85
2022/05/10 02:06:50;;;;;;;6.13;2.08;;;12.20;55.60;;;;;;4121563;28;20026;-85
2022/05/10 02:09:32;;;;;;;7.38;2.25;;;12.20;55.70;;;;;;4115590;28;20053;-85
2022/05/10 02:11:39;;;;;;;11.70;2.33;;;12.20;55.60;;;;;;4117798;28;20126;-85
2022/05/10 02:14:02;;;;;;;12.52;2.30;;;12.20;55.70;;;;;;4117510;28;20023;-85
2022/05/10 02:16:11;;;;;;;16.67;2.00;;;12.10;55.60;;;;;;4121690;28;20030;-85
2022/05/10 02:18:34;;;;;;;5.40;2.30;;;12.20;55.70;;;;;;4113208;28;20026;-85
2022/05/10 02:20:49;;;;;;;7.97;2.65;;;12.20;55.60;;;;;;4128111;28;20089;-86
2022/05/10 02:23:03;;;;;;;10.55;2.35;;;12.20;55.60;;;;;;4116368;28;20029;-86
2022/05/10 02:25:16;;;;;;;10.70;2.08;;;12.20;55.60;;;;;;4117926;28;20033;-85
2022/05/10 02:27:21;;;;;;;7.65;3.05;;;12.20;55.60;;;;;;4117876;28;20699;-86
2022/05/10 02:29:43;;;;;;;6.10;2.33;;;12.20;55.60;;;;;;4113857;28;20038;-86
2022/05/10 02:34:16;;;;;;;7.47;2.20;;;12.20;55.60;;;;;;4118281;28;20026;-85
2022/05/10 02:36:18;;;;;;;11.65;2.90;;;12.20;55.60;;;;;;4118893;28;20030;-85
2022/05/10 02:38:23;;;;;;;13.50;2.92;;;12.20;55.60;;;;;;4136567;28;20022;-85
2022/05/10 02:40:23;;;;;;;7.68;2.25;;;12.20;55.60;;;;;;4132562;28;20137;-85
2022/05/10 02:42:25;;;;;;;8.63;2.50;;;12.10;55.60;;;;;;4117452;28;20054;-85
2022/05/10 02:44:27;;;;;;;8.80;2.40;;;12.20;55.70;;;;;;4116282;28;21802;-85
2022/05/10 02:46:28;;;;;;;9.48;2.63;;;12.20;55.70;;;;;;4118366;28;20034;-85
2022/05/10 02:48:32;;;;;;;6.78;2.42;;;12.10;55.60;;;;;;4119885;28;20034;-86
2022/05/10 02:50:34;;;;;;;10.23;2.65;;;12.20;55.60;;;;;;4119515;28;20065;-87
2022/05/10 02:52:34;;;;;;;8.32;2.55;;;12.20;55.60;;;;;;4119000;28;20030;-86
2022/05/10 02:54:35;;;;;;;9.10;2.47;;;12.10;55.60;;;;;;4121403;28;20157;-86
2022/05/10 02:56:37;;;;;;;7.10;2.50;;;12.20;55.70;;;;;;4122496;28;20625;-86
2022/05/10 02:58:49;;;;;;;11.30;2.72;;;12.20;55.70;;;;;;4122918;28;20385;-85
2022/05/10 03:00:56;;;;;;;9.48;2.65;;;12.10;55.60;;;;;;4119265;28;20176;-85
2022/05/10 03:03:01;;;;;;;12.32;2.92;;;12.10;55.60;;;;;;4120386;28;20057;-85
2022/05/10 03:05:04;;;;;;;9.93;2.60;;;12.10;55.70;;;;;;4120655;28;20022;-86
2022/05/10 03:07:06;;;;;;;9.13;2.55;;;12.20;56.00;;;;;;4121094;28;20085;-86
2022/05/10 03:09:07;;;;;;;9.87;3.07;;;12.20;55.70;;;;;;4127169;28;20045;-87
2022/05/10 03:11:07;;;;;;;5.40;2.60;;;12.20;55.80;;;;;;4118771;28;20058;-86
2022/05/10 03:13:08;;;;;;;11.48;2.78;;;12.10;55.70;;;;;;4140155;28;20026;-86
2022/05/10 03:15:09;;;;;;;11.73;2.90;;;12.20;55.80;;;;;;4131584;28;20610;-86
2022/05/10 03:17:13;;;;;;;6.18;2.53;;;12.10;55.80;;;;;;4136515;28;20452;-86
2022/05/10 03:19:16;;;;;;;;;;;12.10;55.80;;;;;;4125412;28;20043;-85
2022/05/10 03:21:18;;;;;;;7.68;2.70;;;12.10;55.80;;;;;;4134727;28;19917;-86
2022/05/10 03:23:18;;;;;;;11.00;2.75;;;12.20;55.80;;;;;;4139820;28;20033;-86
2022/05/10 03:25:19;;;;;;;9.00;2.45;;;12.20;55.80;;;;;;4117832;28;20033;-87
2022/05/10 03:27:19;;;;;;;9.63;2.35;;;12.10;55.80;;;;;;4123029;28;20018;-86
2022/05/10 03:29:20;;;;;;;11.73;2.72;;;12.10;55.90;;;;;;4123226;28;20057;-85
2022/05/10 03:31:23;;;;;;;9.77;3.13;;;12.10;56.00;;;;;;4119389;28;20035;-86
2022/05/10 03:33:24;;;;;;;11.38;2.47;;;12.00;56.00;;;;;;4119445;28;20101;-85
2022/05/10 03:35:25;;;;;;;10.35;2.92;;;12.00;56.00;;;;;;4125061;28;20050;-86
2022/05/10 03:37:29;;;;;;;7.95;2.67;;;12.00;56.10;;;;;;4112043;28;20042;-85
2022/05/10 03:39:30;;;;;;;7.82;2.58;;;12.00;56.20;;;;;;4120009;28;20077;-86
2022/05/10 03:41:30;;;;;;;13.73;2.75;;;12.00;56.30;;;;;;4118136;28;20172;-86
2022/05/10 03:43:31;;;;;;;7.18;2.63;;;12.00;56.40;;;;;;4122053;28;20460;-86
2022/05/10 03:45:32;;;;;;;6.10;2.70;;;11.90;56.40;;;;;;4119828;28;20046;-86
2022/05/10 03:47:32;;;;;;;7.75;2.60;;;11.90;56.40;;;;;;4138546;28;20459;-86
2022/05/10 03:49:33;;;;;;;11.55;2.65;;;12.00;56.50;;;;;;4123036;28;20026;-85
2022/05/10 03:51:34;;;;;;;10.20;2.88;;;11.90;56.60;;;;;;4124055;28;20034;-88
2022/05/10 03:53:43;;;;;;;8.75;2.65;;;11.90;56.60;;;;;;4145181;28;20046;-87
2022/05/10 03:55:52;;;;;;;8.60;2.75;;;11.90;56.70;;;;;;4124413;28;20037;-86
2022/05/10 03:57:53;;;;;;;6.65;2.50;;;11.90;56.80;;;;;;4126624;28;20027;-86
2022/05/10 03:59:54;;;;;;;6.95;2.35;;;11.90;56.90;;;;;;4123123;28;21183;-88
2022/05/10 04:01:56;;;;;;;5.05;2.47;;;11.80;57.00;;;;;;4123796;28;20067;-86
2022/05/10 04:03:57;;;;;;;5.32;2.35;;;11.80;57.10;;;;;;4121938;28;20037;-86
2022/05/10 04:05:58;;;;;;;11.02;3.00;;;11.80;57.10;;;;;;4124847;28;20053;-87
2022/05/10 04:07:58;;;;;;;16.08;2.90;;;11.80;57.30;;;;;;4123473;28;20105;-88
2022/05/10 04:09:59;;;;;;;9.35;2.97;;;11.80;57.40;;;;;;4120144;28;20088;-85
2022/05/10 04:12:00;;;;;;;9.07;2.75;;;11.80;57.50;;;;;;4133011;28;20026;-86
2022/05/10 04:14:11;;;;;;;;;;;;;;;;;;;;;
2022/05/10 04:16:12;;;;;;;7.53;2.53;;;11.80;57.70;;;;;;4146820;28;20034;-86
2022/05/10 04:18:15;;;;;;;;;;;11.80;57.80;;;;;;4128133;28;20312;-88
2022/05/10 04:20:16;;;;;;;8.40;2.70;;;11.80;58.10;;;;;;4143294;28;19968;-86
2022/05/10 04:22:17;;;;;;;8.52;2.40;;;11.80;57.70;;;;;;4128779;28;20034;-86
2022/05/10 04:24:20;;;;;;;15.15;3.42;;;11.80;57.90;;;;;;4122086;28;20037;-86
2022/05/10 04:26:20;;;;;;;10.43;3.30;;;11.80;58.20;;;;;;4146739;28;20029;-85
2022/05/10 04:28:21;;;;;;;9.30;3.00;;;11.80;58.10;;;;;;4125706;28;20185;-85
2022/05/10 04:30:22;;;;;;;12.57;2.90;;;11.80;58.20;;;;;;4125983;28;20090;-87
2022/05/10 04:32:24;;;;;;;5.18;2.83;;;11.80;58.30;;;;;;4124388;28;20405;-85
2022/05/10 04:34:24;;;;;;;8.38;3.25;;;11.70;58.30;;;;;;4124165;28;21098;-87
2022/05/10 04:36:25;;;;;;;8.90;3.33;;;11.70;58.50;;;;;;4124873;28;20043;-86
2022/05/10 04:38:26;;;;;;;12.10;3.42;;;11.80;58.70;;;;;;4123038;28;20057;-85
2022/05/10 04:42:46;;;;;;;10.75;2.88;;;11.70;58.80;;;;;;4116200;28;20098;-86
2022/05/10 04:44:46;;;;;;;10.23;3.17;;;11.70;58.90;;;;;;4124504;28;20483;-85
2022/05/10 04:46:47;;;;;;;16.02;3.03;;;11.80;59.00;;;;;;4141573;28;20022;-85
2022/05/10 04:48:48;;;;;;;12.70;3.42;;;11.70;59.00;;;;;;4121242;28;20062;-86
2022/05/10 04:50:48;;;;;;;6.93;3.35;;;11.80;59.10;;;;;;4137287;28;20872;-86
2022/05/10 04:52:49;;;;;;;11.23;3.03;;;11.70;59.20;;;;;;4136723;28;20029;-88
2022/05/10 04:54:50;;;;;;;9.80;3.53;;;11.80;59.30;;;;;;4120019;28;20122;-87
2022/05/10 04:56:50;;;;;;;11.43;3.13;;;11.80;59.40;;;;;;4124070;28;20034;-87
2022/05/10 04:58:54;;;;;;;11.43;3.25;;;11.90;59.50;;;;;;4128462;28;20586;-87
2022/05/10 05:00:59;;;;;;;12.35;3.72;;;11.80;59.60;;;;;;4142062;28;20022;-88
2022/05/10 05:02:59;;;;;;;12.32;3.28;;;11.80;59.70;;;;;;4121189;28;20038;-87
2022/05/10 05:05:00;;;;;;;18.10;3.88;;;11.80;60.00;;;;;;4122311;28;20026;-88
2022/05/10 05:07:02;;;;;;;10.07;3.53;;;11.90;60.20;;;;;;4130787;28;20033;-91
2022/05/10 05:09:02;;;;;;;11.30;3.25;;;11.90;60.20;;;;;;4126351;28;20029;-89
2022/05/10 05:11:03;;;;;;;7.82;3.03;;;11.90;60.60;;;;;;4123192;28;20026;-90
2022/05/10 05:13:04;;;;;;;8.07;3.20;;;11.90;60.70;;;;;;4138342;28;20026;-89
2022/05/10 05:15:08;;;;;;;7.78;3.15;;;11.90;60.80;;;;;;4140260;28;20021;-88
2022/05/10 05:17:09;;;;;;;10.55;3.65;;;11.90;61.00;;;;;;4124016;28;20031;-89
2022/05/10 05:19:09;;;;;;;11.70;3.65;;;12.00;61.20;;;;;;4122101;28;20113;-87
2022/05/10 05:21:10;;;;;;;13.05;3.05;;;12.00;61.30;;;;;;4125801;28;20026;-88
2022/05/10 05:23:12;;;;;;;10.35;3.38;;;12.10;61.40;;;;;;4119102;28;20038;-87
2022/05/10 05:25:12;;;;;;;7.88;2.97;;;12.10;61.50;;;;;;4122675;28;20022;-87
2022/05/10 05:27:13;;;;;;;6.75;2.70;;;12.10;61.40;;;;;;4139910;28;20381;-89
2022/05/10 05:29:14;;;;;;;10.80;2.83;;;12.20;61.50;;;;;;4126105;28;20038;-89
2022/05/10 05:31:15;;;;;;;12.20;3.08;;;12.20;61.40;;;;;;4123073;28;20121;-87
2022/05/10 05:33:17;;;;;;;7.05;2.60;;;12.30;61.40;;;;;;4118300;28;20100;-87
2022/05/10 05:35:18;;;;;;;11.20;3.28;;;12.40;61.20;;;;;;4117477;28;20508;-90
2022/05/10 05:37:34;;;;;;;16.75;3.67;;;12.40;60.90;;;;;;4133477;28;20041;-88
2022/05/10 05:39:35;;;;;;;6.82;3.33;;;12.50;60.80;;;;;;4120783;28;20042;-88
2022/05/10 05:41:36;;;;;;;10.18;2.85;;;12.50;60.50;;;;;;4120198;28;20500;-90
2022/05/10 05:43:37;;;;;;;12.73;3.55;;;12.50;60.30;;;;;;4120063;28;20034;-87
2022/05/10 05:45:38;;;;;;;10.70;3.60;;;12.60;60.10;;;;;;4121464;28;20038;-89
2022/05/10 05:47:39;;;;;;;12.20;3.17;;;12.70;59.90;;;;;;4124958;28;20551;-88
2022/05/10 05:49:39;;;;;;;16.90;3.15;;;12.70;59.60;;;;;;4121078;28;20057;-87
2022/05/10 05:51:40;;;;;;;8.35;2.90;;;12.90;59.50;;;;;;4125475;28;20053;-87
2022/05/10 05:53:41;;;;;;;11.45;3.15;;;12.80;59.30;;;;;;4118596;28;20039;-91
2022/05/10 05:55:46;;;;;;;8.35;3.30;;;12.90;59.30;;;;;;4114327;28;20070;-88
2022/05/10 05:57:46;;;;;;;10.18;3.03;;;12.90;59.20;;;;;;4136829;28;20026;-88
2022/05/10 05:59:48;;;;;;;12.93;3.10;;;13.00;59.10;;;;;;4123691;28;20034;-90
2022/05/10 06:01:48;;;;;;;27.02;3.00;;;13.10;59.00;;;;;;4120797;28;20035;-87
2022/05/10 06:03:51;;;;;;;6.60;3.13;;;13.10;58.80;;;;;;4122645;28;20481;-88
2022/05/10 06:05:52;;;;;;;13.03;2.70;;;13.20;58.80;;;;;;4125080;28;20045;-89
2022/05/10 06:07:52;;;;;;;14.43;3.45;;;13.30;58.70;;;;;;4118377;28;20059;-88
2022/05/10 06:09:53;;;;;;;7.53;3.08;;;13.30;58.60;;;;;;4137670;28;20042;-88
2022/05/10 06:11:54;;;;;;;10.65;3.50;;;13.40;58.50;;;;;;4139768;28;20148;-91
2022/05/10 06:13:54;;;;;;;12.45;3.63;;;13.40;58.50;;;;;;4128289;28;20033;-89
2022/05/10 06:15:55;;;;;;;8.48;3.08;;;13.50;58.30;;;;;;4134489;28;20070;-87
2022/05/10 06:17:56;;;;;;;10.88;3.60;;;13.50;58.20;;;;;;4139787;28;20027;-87
2022/05/10 06:19:57;;;;;;;8.55;2.97;;;13.60;58.20;;;;;;4152420;28;20021;-87
2022/05/10 06:21:58;;;;;;;9.32;3.20;;;13.60;58.20;;;;;;4126056;28;20037;-87
2022/05/10 06:23:58;;;;;;;13.68;4.00;;;13.70;58.10;;;;;;4143253;28;20081;-89
2022/05/10 06:25:59;;;;;;;9.52;4.20;;;13.70;58.10;;;;;;4127986;28;20036;-88
2022/05/10 06:27:59;;;;;;;12.05;3.83;;;13.80;58.10;;;;;;4128285;28;20062;-88
2022/05/10 06:30:00;;;;;;;14.98;5.53;;;13.80;58.00;;;;;;4129258;28;20034;-88
2022/05/10 06:32:01;;;;;;;27.23;6.88;;;13.90;58.50;;;;;;4140133;28;20038;-88
2022/05/10 06:34:03;;;;;;;13.45;4.50;;;14.00;58.00;;;;;;4128981;28;20022;-90
2022/05/10 06:36:04;;;;;;;9.90;4.05;;;14.00;57.90;;;;;;4125180;28;20033;-90
2022/05/10 06:38:16;;;;;;;24.42;8.15;;;14.10;57.80;;;;;;4122309;28;20027;-90
2022/05/10 06:40:19;;;;;;;15.57;5.80;;;14.10;57.60;;;;;;4123748;28;20037;-88
2022/05/10 06:42:24;;;;;;;17.27;6.22;;;14.20;57.60;;;;;;4128739;28;20024;-88
2022/05/10 06:44:26;;;;;;;16.73;7.13;;;14.20;57.60;;;;;;4121352;28;20035;-86
2022/05/10 06:46:29;;;;;;;14.55;5.25;;;14.30;57.60;;;;;;4127046;28;20030;-88
2022/05/10 06:48:30;;;;;;;21.90;7.22;;;14.30;57.60;;;;;;4128060;28;20031;-89
2022/05/10 06:50:31;;;;;;;18.75;7.50;;;14.30;57.60;;;;;;4128255;28;20142;-88
2022/05/10 06:52:32;;;;;;;18.55;7.60;;;14.40;57.60;;;;;;4131480;28;20019;-90
2022/05/10 06:54:33;;;;;;;14.65;5.93;;;14.40;57.80;;;;;;4132208;28;20046;-88
2022/05/10 06:56:34;;;;;;;15.70;4.38;;;14.50;57.90;;;;;;4128344;28;20057;-88
2022/05/10 06:58:35;;;;;;;10.40;3.72;;;14.60;58.00;;;;;;4130727;28;20133;-89
2022/05/10 07:00:40;;;;;;;12.63;4.30;;;14.60;57.90;;;;;;4129897;28;20372;-88
2022/05/10 07:02:40;;;;;;;16.00;4.03;;;14.70;57.80;;;;;;4127136;28;20057;-88
2022/05/10 07:04:41;;;;;;;11.55;3.72;;;14.70;57.70;;;;;;4126584;28;20026;-89
2022/05/10 07:06:42;;;;;;;10.63;4.22;;;14.70;57.60;;;;;;4130257;28;20030;-88
2022/05/10 07:08:43;;;;;;;13.10;4.00;;;14.80;57.50;;;;;;4141096;28;20499;-89
2022/05/10 07:10:44;;;;;;;11.65;4.10;;;14.90;57.50;;;;;;4125610;28;20032;-89
2022/05/10 07:12:45;;;;;;;10.98;4.00;;;14.90;57.40;;;;;;4143684;28;20124;-88
2022/05/10 07:14:46;;;;;;;8.85;4.22;;;15.10;57.50;;;;;;4145616;28;20391;-88
2022/05/10 07:16:46;;;;;;;16.45;4.25;;;15.00;57.40;;;;;;4122972;28;20027;-88
2022/05/10 07:18:47;;;;;;;13.88;4.63;;;15.10;57.30;;;;;;4138760;28;21303;-88
2022/05/10 07:20:50;;;;;;;15.20;4.72;;;15.20;57.30;;;;;;4125214;28;20031;-90
2022/05/10 07:22:50;;;;;;;11.95;4.10;;;15.20;57.30;;;;;;4121792;28;20093;-90
2022/05/10 07:24:52;;;;;;;10.65;4.68;;;15.30;57.30;;;;;;4129284;28;20030;-88
2022/05/10 07:26:52;;;;;;;12.07;4.03;;;15.30;57.30;;;;;;4126951;28;20534;-92
2022/05/10 07:28:53;;;;;;;11.68;4.32;;;15.40;57.30;;;;;;4128928;28;20054;-89
2022/05/10 07:30:54;;;;;;;9.77;3.92;;;15.40;57.10;;;;;;4125637;28;20037;-88
2022/05/10 07:32:54;;;;;;;9.70;4.00;;;15.50;57.20;;;;;;4129965;28;20019;-91
2022/05/10 07:34:55;;;;;;;8.75;3.67;;;15.50;56.90;;;;;;4127775;28;20027;-90
2022/05/10 07:36:56;;;;;;;11.68;4.78;;;15.60;56.90;;;;;;4140442;28;20990;-88
2022/05/10 07:38:57;;;;;;;20.23;4.72;;;15.70;56.80;;;;;;4127246;28;20069;-88
2022/05/10 07:40:57;;;;;;;13.40;4.25;;;15.70;56.80;;;;;;4127382;28;20447;-88
2022/05/10 07:42:58;;;;;;;16.35;5.10;;;15.80;56.80;;;;;;4126315;28;20077;-88
2022/05/10 07:44:59;;;;;;;10.88;4.25;;;15.80;56.70;;;;;;4128370;28;20081;-87
2022/05/10 07:47:00;;;;;;;12.98;4.88;;;15.90;56.60;;;;;;4128722;28;20037;-89
2022/05/10 07:49:01;;;;;;;14.40;5.00;;;15.90;56.40;;;;;;4145575;28;20037;-90
2022/05/10 07:51:02;;;;;;;9.38;4.50;;;16.00;56.50;;;;;;4129256;28;20101;-88
2022/05/10 07:53:06;;;;;;;12.02;5.03;;;16.10;56.50;;;;;;4128596;28;20058;-88
2022/05/10 07:55:09;;;;;;;10.68;4.90;;;16.10;56.30;;;;;;4140481;28;20113;-87
2022/05/10 07:57:09;;;;;;;13.65;4.43;;;16.20;56.40;;;;;;4108993;28;20481;-88
2022/05/10 07:59:13;;;;;;;12.88;4.90;;;16.20;56.50;;;;;;4128495;28;20035;-87
2022/05/10 08:01:14;;;;;;;18.50;6.22;;;16.30;56.60;;;;;;4113196;28;20027;-90
2022/05/10 08:03:18;;;;;;;15.57;5.80;;;16.40;56.50;;;;;;4123558;28;20039;-89
2022/05/10 08:05:23;;;;;;;14.63;5.93;;;16.50;55.80;;;;;;4139004;28;20026;-88
2022/05/10 08:07:24;;;;;;;19.88;7.18;;;16.50;55.40;;;;;;4133413;28;20361;-89
2022/05/10 08:09:24;;;;;;;11.50;5.43;;;16.70;55.10;;;;;;4114626;28;20102;-89
2022/05/10 08:11:25;;;;;;;12.70;5.80;;;16.80;54.80;;;;;;4142576;28;20045;-91
2022/05/10 08:13:31;;;;;;;15.18;6.60;;;16.90;54.90;;;;;;4143206;28;20123;-89
2022/05/10 08:15:32;;;;;;;14.00;5.75;;;17.00;54.60;;;;;;4106345;28;20035;-89
2022/05/10 08:17:33;;;;;;;17.95;5.35;;;17.10;54.50;;;;;;4127936;28;20053;-91
2022/05/10 08:19:34;;;;;;;15.15;6.00;;;17.20;54.70;;;;;;4109696;28;20394;-88
2022/05/10 08:21:35;;;;;;;16.50;5.95;;;17.30;54.60;;;;;;4127264;28;20511;-89
2022/05/10 08:23:36;;;;;;;14.63;5.80;;;17.50;54.20;;;;;;4143033;28;20033;-92
2022/05/10 08:25:37;;;;;;;11.85;5.55;;;17.50;54.20;;;;;;4139241;28;20030;-89
2022/05/10 08:27:38;;;;;;;16.10;6.07;;;17.60;53.90;;;;;;4137457;28;20033;-92
2022/05/10 08:29:40;;;;;;;12.90;5.60;;;17.70;53.30;;;;;;4119181;28;20183;-89
2022/05/10 08:31:40;;;;;;;14.88;5.57;;;17.90;53.20;;;;;;4127486;28;20473;-88
2022/05/10 08:33:44;;;;;;;15.63;5.32;;;17.90;53.20;;;;;;4125527;28;20045;-90
2022/05/10 08:35:47;;;;;;;23.25;6.70;;;18.10;53.10;;;;;;4110035;28;20042;-87
2022/05/10 08:37:48;;;;;;;17.40;6.03;;;18.20;53.00;;;;;;4119808;28;20088;-88
2022/05/10 08:39:48;;;;;;;20.08;6.40;;;18.30;52.50;;;;;;4129096;28;20685;-88
2022/05/10 08:41:54;;;;;;;17.35;6.40;;;18.40;52.10;;;;;;4141794;28;20069;-89
2022/05/10 08:43:59;;;;;;;13.60;6.20;;;18.50;51.20;;;;;;4124864;28;20122;-89
2022/05/10 08:46:02;;;;;;;11.98;5.75;;;18.60;51.00;;;;;;4122282;28;20030;-89
2022/05/10 08:48:03;;;;;;;11.57;5.70;;;18.80;51.60;;;;;;4127768;28;20034;-88
2022/05/10 08:50:06;;;;;;;16.70;5.90;;;18.90;51.30;;;;;;4127209;28;20030;-90
2022/05/10 08:52:07;;;;;;;17.00;7.20;;;19.00;50.90;;;;;;4118244;28;20034;-88
2022/05/10 08:54:08;;;;;;;16.60;6.35;;;19.10;50.90;;;;;;4119466;28;20057;-90
2022/05/10 08:56:21;;;;;;;12.20;5.55;;;19.20;50.40;;;;;;4115558;28;20409;-88
2022/05/10 08:58:36;;;;;;;15.35;5.80;;;19.30;50.20;;;;;;4119626;28;20037;-88
2022/05/10 09:00:43;;;;;;;14.50;5.93;;;19.40;50.20;;;;;;4135992;28;20515;-88
2022/05/10 09:02:52;;;;;;;13.18;5.78;;;19.50;50.50;;;;;;4125493;28;20141;-89
2022/05/10 09:05:01;;;;;;;16.58;5.90;;;19.60;50.80;;;;;;4139020;28;20022;-88
2022/05/10 09:07:12;;;;;;;12.90;5.70;;;19.70;50.70;;;;;;4125069;28;20461;-91
2022/05/10 09:09:23;;;;;;;15.38;6.32;;;19.80;50.40;;;;;;4119716;28;20140;-89
2022/05/10 09:11:24;;;;;;;15.63;5.93;;;20.00;50.00;;;;;;4122659;28;20030;-89
2022/05/10 09:13:25;;;;;;;14.27;5.70;;;20.10;50.00;;;;;;4126137;28;20041;-91
2022/05/10 09:15:29;;;;;;;19.13;5.30;;;20.20;49.50;;;;;;4128296;28;20035;-89
2022/05/10 09:17:37;;;;;;;11.52;5.60;;;20.40;49.20;;;;;;4148908;28;20030;-88
2022/05/10 09:19:42;;;;;;;20.63;6.05;;;20.50;48.10;;;;;;4120004;28;20038;-88
2022/05/10 09:21:54;;;;;;;16.23;6.30;;;20.60;47.40;;;;;;4114262;28;20100;-90
2022/05/10 09:24:12;;;;;;;12.17;5.17;;;20.60;46.60;;;;;;4123554;28;20026;-91
2022/05/10 09:26:14;;;;;;;12.38;5.75;;;20.70;47.20;;;;;;4123155;28;20035;-89
2022/05/10 09:28:44;;;;;;;16.70;7.18;;;20.70;46.10;;;;;;4122960;28;20023;-88
2022/05/10 09:34:45;;;;;;;19.33;5.50;;;20.80;45.50;;;;;;4140608;28;20038;-88
2022/05/10 09:35:51;;;;;;;10.85;5.55;;;20.90;45.90;;;;;;4142087;28;20030;-88
2022/05/10 09:37:54;;;;;;;13.50;4.82;;;20.90;44.50;;;;;;4120001;28;20033;-89
2022/05/10 09:39:55;;;;;;;15.70;5.28;;;20.90;44.40;;;;;;4137802;28;20089;-90
2022/05/10 09:41:55;;;;;;;14.40;5.47;;;21.00;44.00;;;;;;4119827;28;20661;-88
2022/05/10 09:43:56;;;;;;;11.30;4.38;;;21.10;44.10;;;;;;4123243;28;20066;-89
2022/05/10 09:46:03;;;;;;;17.02;4.55;;;21.10;44.10;;;;;;4117636;28;20026;-92
2022/05/10 09:48:07;;;;;;;11.35;4.68;;;21.20;44.50;;;;;;4119383;28;20079;-89
2022/05/10 09:50:17;;;;;;;11.40;5.03;;;21.30;44.20;;;;;;4122995;28;20395;-89
2022/05/10 09:52:22;;;;;;;14.23;4.75;;;21.30;43.70;;;;;;4119683;28;20090;-88
2022/05/10 09:54:38;;;;;;;14.30;4.40;;;21.40;42.70;;;;;;4125128;28;20117;-88
2022/05/10 09:56:44;;;;;;;13.27;5.05;;;21.50;41.70;;;;;;4123116;28;20125;-89
2022/05/10 09:58:54;;;;;;;18.67;4.65;;;21.50;41.80;;;;;;4120407;28;20133;-88
2022/05/10 10:00:56;;;;;;;11.00;5.22;;;21.50;40.90;;;;;;4119665;28;20064;-90
2022/05/10 10:02:57;;;;;;;9.90;4.32;;;21.60;40.20;;;;;;4130260;28;21852;-89
2022/05/10 10:04:58;;;;;;;12.98;5.07;;;21.60;40.90;;;;;;4120317;28;20033;-89
2022/05/10 10:07:06;;;;;;;14.70;4.97;;;21.70;41.20;;;;;;4122015;28;20400;-88
2022/05/10 10:09:07;;;;;;;12.05;5.07;;;21.70;40.50;;;;;;4123843;28;20027;-88
2022/05/10 10:11:20;;;;;;;10.27;4.20;;;21.70;40.60;;;;;;4132412;28;20028;-89
2022/05/10 10:13:29;;;;;;;10.93;4.68;;;21.70;39.90;;;;;;4134534;28;20029;-88
2022/05/10 10:15:37;;;;;;;17.80;4.72;;;21.80;40.40;;;;;;4118916;28;20037;-88
2022/05/10 10:17:38;;;;;;;15.45;5.22;;;21.80;40.30;;;;;;4124611;28;20026;-88
2022/05/10 10:19:45;;;;;;;13.30;5.15;;;21.80;40.20;;;;;;4123402;28;20072;-89
2022/05/10 10:21:52;;;;;;;13.88;4.50;;;21.90;40.00;;;;;;4129933;28;20033;-89
2022/05/10 10:24:01;;;;;;;14.88;4.38;;;21.90;40.40;;;;;;4116382;28;20026;-89
2022/05/10 10:26:13;;;;;;;14.57;4.85;;;21.90;40.60;;;;;;4120176;28;20019;-89
2022/05/10 10:28:42;;;;;;;14.18;4.60;;;21.90;40.30;;;;;;4121909;28;20025;-89
2022/05/10 10:31:30;;;;;;;10.98;3.88;;;21.90;40.00;;;;;;4127930;28;20061;-90
2022/05/10 10:33:50;;;;;;;11.88;3.85;;;22.00;40.20;;;;;;4118346;28;20113;-89
2022/05/10 10:35:55;;;;;;;8.93;3.85;;;22.10;41.50;;;;;;4123278;28;20030;-89
2022/05/10 10:38:19;;;;;;;9.50;4.30;;;22.10;40.20;;;;;;4117647;28;20027;-89
2022/05/10 10:40:37;;;;;;;13.05;3.30;;;22.10;39.80;;;;;;4111024;28;20050;-91
2022/05/10 10:43:05;;;;;;;8.60;3.38;;;22.10;39.70;;;;;;4119302;28;20022;-89
2022/05/10 10:45:12;;;;;;;11.40;3.50;;;22.20;40.00;;;;;;4116531;28;20033;-90
2022/05/10 10:47:37;;;;;;;11.18;3.72;;;22.20;39.90;;;;;;4110453;28;20031;-88
2022/05/10 10:49:57;;;;;;;8.90;3.47;;;22.20;39.50;;;;;;4135725;28;20034;-88
2022/05/10 10:51:59;;;;;;;6.60;3.33;;;22.30;40.20;;;;;;4135141;28;20033;-89
2022/05/10 10:54:01;;;;;;;6.15;3.10;;;22.30;41.20;;;;;;4120605;28;20035;-89
2022/05/10 10:56:33;;;;;;;11.50;3.17;;;22.30;40.90;;;;;;4108153;28;20085;-89